createdAt,value
2023-05-24T00:00:23.592Z,11.45
2023-05-24T00:02:51.288Z,10.80
2023-05-24T00:05:19.019Z,13.73
2023-05-24T00:07:46.503Z,10.23
2023-05-24T00:10:13.985Z,11.05
2023-05-24T00:12:41.453Z,11.30
2023-05-24T00:15:09.288Z,14.95
2023-05-24T00:17:41.158Z,14.57
2023-05-24T00:20:14.319Z,11.90
2023-05-24T00:22:42.393Z,18.15
2023-05-24T00:25:10.048Z,15.73
2023-05-24T00:27:37.734Z,12.35
2023-05-24T00:30:06.478Z,16.15
2023-05-24T00:32:34.058Z,12.13
2023-05-24T00:35:01.541Z,15.77
2023-05-24T00:37:29.628Z,16.27
2023-05-24T00:39:57.165Z,11.95
2023-05-24T00:42:24.784Z,15.20
2023-05-24T00:44:52.260Z,15.40
2023-05-24T00:47:19.843Z,16.55
2023-05-24T00:49:47.481Z,12.30
2023-05-24T00:52:15.210Z,12.27
2023-05-24T00:54:44.078Z,12.38
2023-05-24T00:57:14.067Z,11.18
2023-05-24T00:59:41.802Z,14.55
2023-05-24T01:02:09.384Z,20.17
2023-05-24T01:04:39.770Z,13.68
2023-05-24T01:07:17.095Z,13.75
2023-05-24T01:10:04.736Z,11.45
2023-05-24T01:12:56.433Z,12.68
2023-05-24T01:15:29.834Z,16.90
2023-05-24T01:18:36.915Z,14.52
2023-05-24T01:21:14.076Z,13.35
2023-05-24T01:24:18.170Z,12.40
2023-05-24T01:27:03.525Z,16.83
2023-05-24T01:29:32.595Z,18.75
2023-05-24T01:32:00.484Z,19.65
2023-05-24T01:34:28.021Z,18.35
2023-05-24T01:36:55.403Z,15.60
2023-05-24T01:39:26.435Z,19.20
2023-05-24T01:42:18.350Z,21.70
2023-05-24T01:45:07.600Z,19.10
2023-05-24T01:47:46.982Z,22.10
2023-05-24T01:50:41.688Z,20.88
2023-05-24T01:53:13.382Z,19.90
2023-05-24T01:55:41.492Z,21.03
2023-05-24T01:58:10.474Z,23.83
2023-05-24T02:00:40.895Z,21.92
2023-05-24T02:03:09.075Z,23.17
2023-05-24T02:05:37.679Z,25.63
2023-05-24T02:08:06.805Z,26.88
2023-05-24T02:10:34.328Z,20.77
2023-05-24T02:13:01.777Z,29.75
2023-05-24T02:15:30.503Z,37.65
2023-05-24T02:17:58.815Z,29.77
2023-05-24T02:20:26.588Z,27.25
2023-05-24T02:22:54.279Z,30.70
2023-05-24T02:25:21.764Z,32.88
2023-05-24T02:27:49.340Z,25.10
2023-05-24T02:30:16.803Z,25.20
2023-05-24T02:32:44.481Z,29.05
2023-05-24T02:35:12.164Z,27.17
2023-05-24T02:37:39.645Z,32.85
2023-05-24T02:40:07.905Z,25.55
2023-05-24T02:42:35.941Z,26.23
2023-05-24T02:45:03.652Z,33.85
2023-05-24T02:47:31.140Z,32.28
2023-05-24T02:49:58.707Z,32.13
2023-05-24T02:52:26.772Z,26.63
2023-05-24T02:54:54.223Z,30.00
2023-05-24T02:57:22.912Z,25.60
2023-05-24T02:59:51.124Z,30.90
2023-05-24T03:02:19.554Z,31.63
2023-05-24T03:04:46.972Z,30.55
2023-05-24T03:07:15.007Z,26.88
2023-05-24T03:09:43.375Z,29.45
2023-05-24T03:12:10.785Z,28.10
2023-05-24T03:14:38.781Z,27.48
2023-05-24T03:17:06.620Z,29.38
2023-05-24T03:19:35.255Z,35.05
2023-05-24T03:22:02.672Z,30.25
2023-05-24T03:24:30.103Z,44.92
2023-05-24T03:26:57.848Z,31.88
2023-05-24T03:29:25.511Z,31.27
2023-05-24T03:31:54.273Z,26.38
2023-05-24T03:34:21.858Z,31.50
2023-05-24T03:36:50.072Z,28.77
2023-05-24T03:39:18.511Z,30.20
2023-05-24T03:41:58.598Z,28.00
2023-05-24T03:44:26.439Z,29.45
2023-05-24T03:46:54.709Z,31.75
2023-05-24T03:49:22.121Z,30.33
2023-05-24T03:51:49.969Z,29.80
2023-05-24T03:54:18.994Z,26.45
2023-05-24T03:56:46.628Z,33.90
2023-05-24T03:59:14.071Z,32.10
2023-05-24T04:01:41.540Z,29.55
2023-05-24T04:04:09.130Z,27.77
2023-05-24T04:06:38.158Z,33.70
2023-05-24T04:09:06.010Z,38.15
2023-05-24T04:11:33.572Z,33.17
2023-05-24T04:14:00.995Z,33.13
2023-05-24T04:16:31.818Z,33.47
2023-05-24T04:19:01.079Z,30.25
2023-05-24T04:21:29.311Z,32.00
2023-05-24T04:23:58.177Z,27.35
2023-05-24T04:26:25.854Z,32.17
2023-05-24T04:28:53.918Z,32.88
2023-05-24T04:31:21.719Z,34.13
2023-05-24T04:33:50.157Z,33.10
2023-05-24T04:36:17.806Z,38.25
2023-05-24T04:38:46.352Z,29.80
2023-05-24T04:41:13.977Z,28.27
2023-05-24T04:43:41.385Z,29.88
2023-05-24T04:46:09.491Z,27.20
2023-05-24T04:48:37.099Z,29.33
2023-05-24T04:51:04.555Z,29.77
2023-05-24T04:53:32.979Z,33.15
2023-05-24T04:56:00.542Z,31.20
2023-05-24T04:58:28.012Z,33.45
2023-05-24T05:00:55.396Z,31.40
2023-05-24T05:03:23.034Z,30.67
2023-05-24T05:05:50.596Z,35.08
2023-05-24T05:08:18.019Z,29.75
2023-05-24T05:10:46.367Z,35.72
2023-05-24T05:13:13.764Z,29.75
2023-05-24T05:15:42.869Z,30.50
2023-05-24T05:18:10.602Z,28.30
2023-05-24T05:20:38.205Z,42.28
2023-05-24T05:23:05.880Z,35.45
2023-05-24T05:25:33.371Z,32.38
2023-05-24T05:28:00.844Z,31.38
2023-05-24T05:30:28.239Z,30.75
2023-05-24T05:32:55.754Z,31.50
2023-05-24T05:35:23.156Z,23.45
2023-05-24T05:37:50.885Z,25.90
2023-05-24T05:40:18.482Z,25.98
2023-05-24T05:42:47.563Z,30.77
2023-05-24T05:45:15.060Z,29.83
2023-05-24T05:47:43.302Z,23.48
2023-05-24T05:50:11.241Z,25.60
2023-05-24T05:52:38.627Z,27.30
2023-05-24T05:55:06.706Z,22.17
2023-05-24T05:57:34.150Z,22.70
2023-05-24T06:00:01.810Z,21.55
2023-05-24T06:02:39.422Z,24.75
2023-05-24T06:05:07.291Z,20.92
2023-05-24T06:07:35.859Z,18.42
2023-05-24T06:10:03.781Z,23.27
2023-05-24T06:12:31.249Z,23.35
2023-05-24T06:14:59.558Z,21.63
2023-05-24T06:17:30.183Z,18.15
2023-05-24T06:19:57.644Z,19.75
2023-05-24T06:22:25.227Z,21.45
2023-05-24T06:24:52.766Z,19.13
2023-05-24T06:27:20.175Z,20.65
2023-05-24T06:29:47.639Z,22.73
2023-05-24T06:32:15.051Z,19.42
2023-05-24T06:34:43.241Z,20.88
2023-05-24T06:37:10.768Z,20.83
2023-05-24T06:39:39.301Z,23.20
2023-05-24T06:42:07.208Z,26.60
2023-05-24T06:44:37.258Z,22.75
2023-05-24T06:47:05.888Z,19.67
2023-05-24T06:49:33.767Z,20.98
2023-05-24T06:52:01.521Z,21.13
2023-05-24T06:54:29.002Z,17.75
2023-05-24T06:56:56.901Z,18.42
2023-05-24T06:59:24.469Z,34.55
2023-05-24T07:01:58.455Z,20.42
2023-05-24T07:04:28.452Z,25.73
2023-05-24T07:06:55.960Z,19.55
2023-05-24T07:09:23.352Z,19.52
2023-05-24T07:11:51.030Z,20.13
2023-05-24T07:14:18.480Z,20.23
2023-05-24T07:16:48.784Z,16.35
2023-05-24T07:19:16.554Z,16.52
2023-05-24T07:21:43.951Z,22.17
2023-05-24T07:24:13.069Z,16.17
2023-05-24T07:26:42.190Z,16.83
2023-05-24T07:29:09.686Z,15.20
2023-05-24T07:31:37.042Z,15.10
2023-05-24T07:34:04.427Z,16.05
2023-05-24T07:36:34.999Z,14.35
2023-05-24T07:39:04.948Z,16.70
2023-05-24T07:41:33.556Z,17.58
2023-05-24T07:44:01.072Z,18.65
2023-05-24T07:46:28.512Z,13.82
2023-05-24T07:48:56.220Z,11.70
2023-05-24T07:51:23.711Z,12.05
2023-05-24T07:53:51.139Z,16.58
2023-05-24T07:56:18.770Z,15.85
2023-05-24T07:58:46.952Z,16.52
2023-05-24T08:01:14.574Z,14.55
2023-05-24T08:03:42.346Z,20.08
2023-05-24T08:06:10.153Z,10.77
2023-05-24T08:08:38.847Z,26.15
2023-05-24T08:11:08.017Z,13.18
2023-05-24T08:13:35.725Z,10.10
2023-05-24T08:16:03.673Z,13.38
2023-05-24T08:18:31.260Z,8.13
2023-05-24T08:20:58.696Z,8.10
2023-05-24T08:23:26.177Z,14.50
2023-05-24T08:25:54.347Z,9.68
2023-05-24T08:28:22.170Z,14.07
2023-05-24T08:30:49.790Z,10.15
2023-05-24T08:33:17.474Z,25.90
2023-05-24T08:35:45.056Z,53.90
2023-05-24T08:38:12.539Z,25.42
2023-05-24T08:40:40.076Z,14.30
2023-05-24T08:43:12.069Z,14.05
2023-05-24T08:48:08.338Z,16.48
2023-05-24T08:50:35.895Z,11.63
2023-05-24T08:53:06.643Z,8.07
2023-05-24T08:55:35.324Z,7.57
2023-05-24T08:58:02.883Z,17.10
2023-05-24T09:00:30.406Z,25.27
2023-05-24T09:02:58.940Z,11.30
2023-05-24T09:05:27.283Z,19.38
2023-05-24T09:07:56.865Z,12.50
2023-05-24T09:10:25.506Z,13.80
2023-05-24T09:12:57.517Z,15.40
2023-05-24T09:17:52.451Z,16.35
2023-05-24T09:20:21.306Z,23.92
2023-05-24T09:22:52.237Z,8.38
2023-05-24T09:25:23.458Z,27.80
2023-05-24T09:27:52.271Z,28.67
2023-05-24T09:30:21.196Z,8.85
2023-05-24T09:32:59.769Z,18.98
2023-05-24T09:35:28.397Z,16.20
2023-05-24T09:38:00.774Z,9.07
2023-05-24T09:40:28.827Z,12.27
2023-05-24T09:43:10.125Z,12.55
2023-05-24T09:45:49.073Z,11.77
2023-05-24T09:48:17.655Z,13.18
2023-05-24T09:50:47.983Z,8.25
2023-05-24T09:53:18.827Z,10.27
2023-05-24T09:55:46.400Z,11.05
2023-05-24T09:58:15.184Z,12.05
2023-05-24T10:00:43.085Z,9.23
2023-05-24T10:03:13.553Z,9.20
2023-05-24T10:05:44.523Z,10.90
2023-05-24T10:08:12.206Z,8.27
2023-05-24T10:10:39.697Z,11.38
2023-05-24T10:13:07.679Z,12.23
2023-05-24T10:15:35.080Z,10.18
2023-05-24T10:18:10.471Z,11.20
2023-05-24T10:20:41.489Z,17.98
2023-05-24T10:23:10.518Z,8.43
2023-05-24T10:25:44.848Z,14.30
2023-05-24T10:28:16.159Z,8.00
2023-05-24T10:31:21.378Z,14.32
2023-05-24T10:33:51.908Z,10.60
2023-05-24T10:36:19.455Z,13.27
2023-05-24T10:38:47.421Z,11.13
2023-05-24T10:41:15.494Z,10.43
2023-05-24T10:44:00.977Z,13.00
2023-05-24T10:46:34.997Z,9.05
2023-05-24T10:49:04.415Z,11.98
2023-05-24T10:51:40.715Z,12.52
2023-05-24T10:54:35.934Z,13.02
2023-05-24T10:57:05.257Z,10.48
2023-05-24T10:59:39.560Z,10.35
2023-05-24T11:02:10.043Z,12.25
2023-05-24T11:04:46.148Z,18.05
2023-05-24T11:07:19.329Z,13.02
2023-05-24T11:09:52.821Z,12.73
2023-05-24T11:12:23.641Z,10.93
2023-05-24T11:14:53.063Z,10.50
2023-05-24T11:17:24.047Z,11.40
2023-05-24T11:19:53.668Z,11.18
2023-05-24T11:22:27.017Z,11.77
2023-05-24T11:24:54.520Z,11.02
2023-05-24T11:27:22.078Z,12.93
2023-05-24T11:29:49.642Z,11.48
2023-05-24T11:32:19.193Z,14.50
2023-05-24T11:34:47.801Z,17.65
2023-05-24T11:37:18.104Z,12.13
2023-05-24T11:39:52.996Z,12.48
2023-05-24T11:42:23.342Z,19.35
2023-05-24T11:44:53.279Z,8.80
2023-05-24T11:47:22.232Z,12.23
2023-05-24T11:49:52.973Z,13.40
2023-05-24T11:52:20.755Z,18.33
2023-05-24T11:54:49.736Z,12.50
2023-05-24T11:57:22.457Z,12.52
2023-05-24T11:59:49.865Z,10.65
2023-05-24T12:02:18.068Z,8.68
2023-05-24T12:04:46.787Z,9.30
2023-05-24T12:07:16.506Z,10.55
2023-05-24T12:09:43.930Z,15.68
2023-05-24T12:12:11.383Z,15.35
2023-05-24T12:14:39.886Z,12.93
2023-05-24T12:17:17.113Z,6.65
2023-05-24T12:19:44.727Z,6.90
2023-05-24T12:22:12.138Z,9.15
2023-05-24T12:24:42.932Z,8.65
2023-05-24T12:27:11.667Z,10.48
2023-05-24T12:29:41.650Z,13.63
2023-05-24T12:32:13.636Z,10.02
2023-05-24T12:34:43.489Z,14.50
2023-05-24T12:37:12.492Z,8.90
2023-05-24T12:39:42.792Z,6.60
2023-05-24T12:42:12.463Z,7.55
2023-05-24T12:44:40.039Z,11.43
2023-05-24T12:47:09.209Z,8.65
2023-05-24T12:49:37.098Z,9.00
2023-05-24T12:52:04.809Z,8.90
2023-05-24T12:54:32.307Z,7.63
2023-05-24T12:57:00.428Z,7.07
2023-05-24T12:59:29.064Z,10.40
2023-05-24T13:01:57.706Z,16.20
2023-05-24T13:04:28.106Z,8.00
2023-05-24T13:06:55.911Z,11.23
2023-05-24T13:09:24.085Z,74.13
2023-05-24T13:11:52.551Z,14.77
2023-05-24T13:14:20.551Z,8.90
2023-05-24T13:16:48.828Z,12.48
2023-05-24T13:19:17.209Z,10.20
2023-05-24T13:21:44.945Z,7.53
2023-05-24T13:24:16.453Z,24.20
2023-05-24T13:26:45.433Z,7.50
2023-05-24T13:31:44.057Z,15.00
2023-05-24T13:34:11.815Z,25.17
2023-05-24T13:36:39.369Z,20.33
2023-05-24T13:41:41.422Z,6.68
2023-05-24T13:44:10.047Z,6.47
2023-05-24T13:46:38.592Z,29.63
2023-05-24T13:49:07.343Z,21.10
2023-05-24T13:51:34.942Z,10.95
2023-05-24T13:54:03.380Z,5.95
2023-05-24T13:56:34.219Z,9.15
2023-05-24T13:59:03.673Z,15.18
2023-05-24T14:01:32.291Z,10.05
2023-05-24T14:04:04.803Z,11.90
2023-05-24T14:06:33.112Z,13.57
2023-05-24T14:09:00.722Z,7.53
2023-05-24T14:11:31.451Z,8.05
2023-05-24T14:16:30.264Z,13.10
2023-05-24T14:18:57.848Z,8.35
2023-05-24T14:21:27.070Z,9.82
2023-05-24T14:23:54.857Z,6.45
2023-05-24T14:26:23.674Z,7.15
2023-05-24T14:28:54.450Z,7.57
2023-05-24T14:33:51.273Z,9.90
2023-05-24T14:36:18.825Z,12.85
2023-05-24T14:38:46.684Z,7.75
2023-05-24T14:41:15.113Z,10.27
2023-05-24T14:43:42.546Z,10.82
2023-05-24T14:46:10.618Z,10.77
2023-05-24T14:48:41.436Z,11.00
2023-05-24T14:51:09.124Z,7.97
2023-05-24T14:53:36.758Z,8.52
2023-05-24T14:56:06.275Z,6.60
2023-05-24T14:58:33.793Z,5.72
2023-05-24T15:01:01.827Z,7.35
2023-05-24T15:03:29.465Z,8.85
2023-05-24T15:05:57.106Z,7.63
2023-05-24T15:08:24.745Z,6.32
2023-05-24T15:10:52.238Z,8.50
2023-05-24T15:13:20.350Z,9.93
2023-05-24T15:15:47.776Z,10.05
2023-05-24T15:18:15.215Z,7.07
2023-05-24T15:20:42.899Z,5.95
2023-05-24T15:23:11.148Z,12.32
2023-05-24T15:25:38.753Z,8.48
2023-05-24T15:28:06.363Z,8.52
2023-05-24T15:30:37.011Z,7.43
2023-05-24T15:33:04.473Z,7.45
2023-05-24T15:35:31.916Z,19.85
2023-05-24T15:37:59.430Z,12.30
2023-05-24T15:40:26.983Z,5.85
2023-05-24T15:42:54.415Z,11.45
2023-05-24T15:45:21.983Z,9.02
2023-05-24T15:47:49.469Z,7.18
2023-05-24T15:50:16.917Z,10.27
2023-05-24T15:52:44.394Z,7.40
2023-05-24T15:55:11.993Z,8.35
2023-05-24T15:57:39.400Z,7.13
2023-05-24T16:00:07.498Z,12.27
2023-05-24T16:02:39.745Z,11.75
2023-05-24T16:05:07.705Z,8.32
2023-05-24T16:07:35.380Z,7.57
2023-05-24T16:10:02.830Z,10.57
2023-05-24T16:12:30.802Z,10.27
2023-05-24T16:15:00.191Z,10.35
2023-05-24T16:17:27.774Z,10.02
2023-05-24T16:19:55.427Z,15.10
2023-05-24T16:22:23.935Z,8.95
2023-05-24T16:24:51.620Z,13.60
2023-05-24T16:27:19.343Z,8.52
2023-05-24T16:29:48.162Z,7.75
2023-05-24T16:32:19.057Z,8.95
2023-05-24T16:37:19.746Z,8.90
2023-05-24T16:39:47.107Z,13.55
2023-05-24T16:42:14.477Z,13.13
2023-05-24T16:44:41.884Z,9.10
2023-05-24T16:47:09.444Z,8.50
2023-05-24T16:49:36.874Z,8.35
2023-05-24T16:52:04.537Z,8.98
2023-05-24T16:54:31.998Z,11.68
2023-05-24T16:56:59.487Z,11.00
2023-05-24T16:59:26.916Z,13.60
2023-05-24T17:01:54.467Z,7.63
2023-05-24T17:04:21.935Z,10.15
2023-05-24T17:06:49.416Z,11.70
2023-05-24T17:09:16.957Z,14.27
2023-05-24T17:11:44.392Z,10.75
2023-05-24T17:14:11.823Z,10.57
2023-05-24T17:16:39.665Z,16.52
2023-05-24T17:19:07.186Z,26.90
2023-05-24T17:21:34.629Z,54.03
2023-05-24T17:24:02.025Z,45.97
2023-05-24T17:26:29.425Z,27.60
2023-05-24T17:28:57.092Z,18.70
2023-05-24T17:31:24.802Z,19.02
2023-05-24T17:33:55.042Z,15.23
2023-05-24T17:36:22.456Z,14.63
2023-05-24T17:38:49.833Z,12.32
2023-05-24T17:41:17.257Z,16.45
2023-05-24T17:43:44.712Z,14.05
2023-05-24T17:46:13.562Z,21.50
2023-05-24T17:48:42.745Z,12.60
2023-05-24T17:51:12.409Z,23.42
2023-05-24T17:53:43.084Z,17.00
2023-05-24T17:56:11.377Z,14.60
2023-05-24T17:58:39.156Z,14.38
2023-05-24T18:01:07.924Z,20.58
2023-05-24T18:03:39.180Z,12.88
2023-05-24T18:06:07.597Z,14.65
2023-05-24T18:08:37.876Z,15.57
2023-05-24T18:11:08.842Z,12.43
2023-05-24T18:13:38.934Z,11.57
2023-05-24T18:16:07.203Z,9.50
2023-05-24T18:18:34.635Z,13.50
2023-05-24T18:21:02.084Z,13.80
2023-05-24T18:23:29.688Z,9.18
2023-05-24T18:26:00.206Z,8.93
2023-05-24T18:28:28.319Z,10.48
2023-05-24T18:30:56.239Z,8.95
2023-05-24T18:33:24.365Z,10.05
2023-05-24T18:35:55.298Z,11.05
2023-05-24T18:38:22.700Z,12.65
2023-05-24T18:40:50.102Z,7.85
2023-05-24T18:43:17.510Z,14.65
2023-05-24T18:45:45.152Z,12.73
2023-05-24T18:48:12.810Z,15.25
2023-05-24T18:50:40.952Z,6.75
2023-05-24T18:53:09.490Z,8.18
2023-05-24T18:55:36.887Z,6.78
2023-05-24T18:58:04.281Z,9.55
2023-05-24T19:00:31.773Z,12.18
2023-05-24T19:02:59.229Z,8.50
2023-05-24T19:05:26.705Z,10.93
2023-05-24T19:07:54.188Z,8.65
2023-05-24T19:10:24.615Z,8.60
2023-05-24T19:12:52.399Z,8.80
2023-05-24T19:15:25.488Z,31.33
2023-05-24T19:17:55.544Z,15.45
2023-05-24T19:20:23.131Z,7.25
2023-05-24T19:22:50.812Z,12.07
2023-05-24T19:25:18.257Z,10.13
2023-05-24T19:27:58.488Z,5.93
2023-05-24T19:30:27.890Z,5.57
2023-05-24T19:32:55.481Z,8.60
2023-05-24T19:35:23.249Z,6.30
2023-05-24T19:37:51.030Z,5.95
2023-05-24T19:40:18.453Z,7.22
2023-05-24T19:42:46.040Z,7.93
2023-05-24T19:45:13.699Z,8.50
2023-05-24T19:47:41.355Z,12.95
2023-05-24T19:50:09.137Z,6.03
2023-05-24T19:52:36.566Z,8.20
2023-05-24T19:55:04.275Z,6.28
2023-05-24T19:57:31.672Z,9.07
2023-05-24T20:00:00.210Z,8.25
2023-05-24T20:02:27.664Z,7.82
2023-05-24T20:04:55.165Z,5.65
2023-05-24T20:07:22.686Z,11.85
2023-05-24T20:09:50.126Z,9.50
2023-05-24T20:12:17.665Z,9.18
2023-05-24T20:14:45.118Z,9.82
2023-05-24T20:17:12.516Z,9.68
2023-05-24T20:19:39.938Z,8.07
2023-05-24T20:22:07.509Z,7.38
2023-05-24T20:24:34.976Z,9.68
2023-05-24T20:27:02.395Z,11.00
2023-05-24T20:29:29.885Z,7.65
2023-05-24T20:31:58.223Z,9.35
2023-05-24T20:34:25.691Z,8.68
2023-05-24T20:36:53.144Z,39.30
2023-05-24T20:39:20.868Z,8.77
2023-05-24T20:41:48.324Z,11.27
2023-05-24T20:44:15.976Z,10.77
2023-05-24T20:46:43.426Z,9.68
2023-05-24T20:49:10.928Z,13.68
2023-05-24T20:51:38.470Z,9.38
2023-05-24T20:54:06.354Z,9.57
2023-05-24T20:56:33.844Z,12.02
2023-05-24T20:59:02.239Z,9.93
2023-05-24T21:01:29.715Z,12.38
2023-05-24T21:03:57.140Z,9.88
2023-05-24T21:06:26.419Z,13.73
2023-05-24T21:08:53.872Z,12.18
2023-05-24T21:11:21.800Z,10.90
2023-05-24T21:13:49.221Z,10.88
2023-05-24T21:16:16.685Z,11.15
2023-05-24T21:18:44.159Z,11.82
2023-05-24T21:21:15.424Z,13.13
2023-05-24T21:23:42.987Z,14.73
2023-05-24T21:26:10.512Z,11.68
2023-05-24T21:28:38.367Z,13.68
2023-05-24T21:31:06.953Z,11.98
2023-05-24T21:33:34.426Z,16.65
2023-05-24T21:36:03.184Z,19.40
2023-05-24T21:38:30.739Z,23.33
2023-05-24T21:40:58.289Z,17.15
2023-05-24T21:43:25.717Z,12.45
2023-05-24T21:45:53.125Z,16.13
2023-05-24T21:48:21.662Z,17.70
2023-05-24T21:50:49.208Z,19.42
2023-05-24T21:53:16.605Z,16.52
2023-05-24T21:55:44.254Z,15.38
2023-05-24T21:58:11.871Z,15.77
2023-05-24T22:00:39.290Z,18.92
2023-05-24T22:03:06.917Z,14.35
2023-05-24T22:05:34.367Z,14.23
2023-05-24T22:08:02.097Z,14.52
2023-05-24T22:10:29.551Z,16.98
2023-05-24T22:12:57.153Z,17.38
2023-05-24T22:15:24.559Z,14.57
2023-05-24T22:17:53.650Z,12.30
2023-05-24T22:20:22.456Z,11.95
2023-05-24T22:22:53.611Z,15.05
2023-05-24T22:25:21.597Z,13.23
2023-05-24T22:27:49.473Z,19.73
2023-05-24T22:30:17.613Z,14.63
2023-05-24T22:32:45.175Z,14.80
2023-05-24T22:35:12.824Z,13.48
2023-05-24T22:37:40.284Z,12.15
2023-05-24T22:40:08.241Z,9.75
2023-05-24T22:42:35.749Z,10.13
2023-05-24T22:45:03.415Z,12.88
2023-05-24T22:47:33.427Z,16.35
2023-05-24T22:50:02.162Z,12.95
2023-05-24T22:52:30.395Z,9.35
2023-05-24T22:54:57.922Z,11.25
2023-05-24T22:57:25.408Z,12.30
2023-05-24T22:59:53.184Z,11.98
2023-05-24T23:02:20.753Z,12.75
2023-05-24T23:04:48.416Z,14.15
2023-05-24T23:07:15.875Z,13.48
2023-05-24T23:09:44.020Z,10.57
2023-05-24T23:12:12.071Z,9.65
2023-05-24T23:14:41.590Z,9.57
2023-05-24T23:17:13.378Z,11.35
2023-05-24T23:19:46.559Z,12.00
2023-05-24T23:22:18.460Z,8.95
2023-05-24T23:24:47.587Z,8.95
2023-05-24T23:27:15.118Z,7.72
2023-05-24T23:29:42.653Z,13.38
2023-05-24T23:32:10.547Z,7.97
2023-05-24T23:34:38.134Z,10.20
2023-05-24T23:37:05.707Z,8.15
2023-05-24T23:39:33.142Z,9.38
2023-05-24T23:42:02.201Z,9.77
2023-05-24T23:44:29.770Z,8.05
2023-05-24T23:46:58.031Z,10.40
2023-05-24T23:49:25.856Z,11.18
2023-05-24T23:51:53.364Z,10.55
2023-05-24T23:54:20.753Z,10.93
2023-05-24T23:56:48.621Z,7.80
2023-05-24T23:59:17.300Z,9.10
